Time;durP1;ratioP1;P1;durP2;ratioP2;P2;SDS_P1;SDS_P2;PMS_P1;PMS_P2;Temp;Humidity;BMP_temperature;BMP_pressure;BME280_temperature;BME280_humidity;BME280_pressure;Samples;Min_cycle;Max_cycle;Signal;HPM_P1;HPM_P2
2021/05/14 00:00:45;;;;;;;38.20;21.85;;;;;;;;;;5057548;28;20502;-49
2021/05/14 00:03:11;;;;;;;56.72;32.03;;;;;;;;;;5057866;28;20573;-51
2021/05/14 00:05:39;;;;;;;140.57;78.93;;;;;;;;;;5057526;28;20035;-52
2021/05/14 00:08:06;;;;;;;16.77;9.15;;;;;;;;;;5057629;28;20016;-49
2021/05/14 00:10:35;;;;;;;20.98;12.55;;;;;;;;;;5057106;28;20782;-50
2021/05/14 00:13:01;;;;;;;27.30;14.55;;;;;;;;;;5057555;28;20033;-53
2021/05/14 00:15:27;;;;;;;23.58;13.25;;;;;;;;;;5057301;28;20109;-52
2021/05/14 00:17:53;;;;;;;13.70;7.60;;;;;;;;;;5057824;28;20070;-52
2021/05/14 00:20:19;;;;;;;39.85;24.20;;;;;;;;;;5061315;28;20033;-52
2021/05/14 00:22:45;;;;;;;21.88;13.75;;;;;;;;;;5061556;28;20256;-51
2021/05/14 00:25:14;;;;;;;36.05;21.42;;;;;;;;;;5061050;28;20093;-49
2021/05/14 00:27:41;;;;;;;25.85;15.25;;;;;;;;;;5075695;28;20032;-52
2021/05/14 00:30:09;;;;;;;18.83;9.98;;;;;;;;;;5076381;28;20469;-53
2021/05/14 00:32:35;;;;;;;43.05;26.45;;;;;;;;;;5075378;28;20459;-53
2021/05/14 00:35:01;;;;;;;26.13;16.33;;;;;;;;;;5076554;28;20024;-53
2021/05/14 00:37:28;;;;;;;22.88;13.25;;;;;;;;;;5076591;28;20016;-53
2021/05/14 00:39:54;;;;;;;37.08;21.83;;;;;;;;;;5076256;28;20085;-53
2021/05/14 00:42:20;;;;;;;18.25;9.95;;;;;;;;;;5076439;28;20473;-53
2021/05/14 00:44:46;;;;;;;11.85;7.22;;;;;;;;;;5076437;28;20035;-49
2021/05/14 00:47:19;;;;;;;61.35;37.10;;;;;;;;;;5076219;28;20358;-53
2021/05/14 00:49:46;;;;;;;41.28;22.98;;;;;;;;;;5076195;28;20021;-53
2021/05/14 00:52:16;;;;;;;22.75;11.73;;;;;;;;;;5076066;28;20605;-52
2021/05/14 00:54:42;;;;;;;39.42;23.73;;;;;;;;;;5075960;28;20488;-51
2021/05/14 00:57:08;;;;;;;56.70;31.20;;;;;;;;;;5076166;28;20059;-52
2021/05/14 00:59:35;;;;;;;69.70;40.47;;;;;;;;;;5075833;28;20381;-51
2021/05/14 01:02:01;;;;;;;65.93;41.15;;;;;;;;;;5075788;28;20025;-52
2021/05/14 01:04:27;;;;;;;49.70;30.38;;;;;;;;;;5075969;28;20024;-53
2021/05/14 01:06:53;;;;;;;81.72;49.70;;;;;;;;;;5075791;28;20116;-53
2021/05/14 01:09:20;;;;;;;16.90;9.25;;;;;;;;;;5075649;28;20024;-52
2021/05/14 01:11:46;;;;;;;82.80;48.78;;;;;;;;;;5075408;28;20076;-53
2021/05/14 01:14:12;;;;;;;38.83;21.60;;;;;;;;;;5075693;28;20500;-52
2021/05/14 01:16:38;;;;;;;45.13;26.42;;;;;;;;;;5075726;28;20103;-51
2021/05/14 01:19:05;;;;;;;9.65;6.15;;;;;;;;;;5075761;28;20372;-51
2021/05/14 01:21:31;;;;;;;31.33;19.40;;;;;;;;;;5075521;28;20031;-52
2021/05/14 01:23:57;;;;;;;44.15;26.15;;;;;;;;;;5075625;28;20024;-51
2021/05/14 01:26:26;;;;;;;58.33;33.42;;;;;;;;;;5075586;28;20431;-52
2021/05/14 01:28:52;;;;;;;56.35;34.47;;;;;;;;;;5075465;28;20027;-53
2021/05/14 01:31:18;;;;;;;26.63;14.30;;;;;;;;;;5074836;28;20028;-53
2021/05/14 01:33:46;;;;;;;14.88;8.35;;;;;;;;;;5075254;28;20377;-53
2021/05/14 01:36:12;;;;;;;17.13;10.38;;;;;;;;;;5075375;28;20090;-52
2021/05/14 01:38:38;;;;;;;16.42;9.52;;;;;;;;;;5075256;28;20052;-51
2021/05/14 01:41:04;;;;;;;15.93;9.25;;;;;;;;;;5074930;28;20036;-52
2021/05/14 01:43:30;;;;;;;15.77;7.68;;;;;;;;;;5075227;28;20025;-52
2021/05/14 01:46:03;;;;;;;26.27;14.70;;;;;;;;;;5075035;28;20103;-50
2021/05/14 01:48:29;;;;;;;22.13;12.63;;;;;;;;;;5075116;28;20025;-52
2021/05/14 01:50:55;;;;;;;14.55;8.52;;;;;;;;;;5075143;28;20033;-52
2021/05/14 01:53:24;;;;;;;17.20;7.55;;;;;;;;;;5075011;28;20043;-52
2021/05/14 01:55:50;;;;;;;16.83;9.80;;;;;;;;;;5074828;28;20054;-52
2021/05/14 01:58:16;;;;;;;10.27;5.70;;;;;;;;;;5075091;28;20362;-52
2021/05/14 02:00:42;;;;;;;13.65;7.60;;;;;;;;;;5074853;28;20033;-53
2021/05/14 02:03:08;;;;;;;9.07;4.10;;;;;;;;;;5074839;28;20066;-52
2021/05/14 02:05:34;;;;;;;15.48;6.60;;;;;;;;;;5074954;28;20021;-52
2021/05/14 02:08:02;;;;;;;6.20;3.90;;;;;;;;;;5074853;28;20423;-52
2021/05/14 02:10:31;;;;;;;13.90;8.32;;;;;;;;;;5074406;28;20061;-52
2021/05/14 02:12:57;;;;;;;10.30;5.43;;;;;;;;;;5074768;28;20052;-52
2021/05/14 02:15:25;;;;;;;9.00;5.10;;;;;;;;;;5074488;28;20027;-52
2021/05/14 02:17:51;;;;;;;11.40;5.10;;;;;;;;;;5074728;28;20145;-52
2021/05/14 02:20:17;;;;;;;9.10;3.35;;;;;;;;;;5074629;28;20048;-52
2021/05/14 02:22:43;;;;;;;12.68;6.25;;;;;;;;;;5074647;28;20017;-52
2021/05/14 02:25:12;;;;;;;8.15;4.30;;;;;;;;;;5074310;28;20024;-52
2021/05/14 02:27:38;;;;;;;13.27;3.67;;;;;;;;;;5074563;28;20031;-51
2021/05/14 02:30:05;;;;;;;6.43;4.80;;;;;;;;;;5074247;28;20017;-51
2021/05/14 02:32:31;;;;;;;6.88;3.88;;;;;;;;;;5074669;28;20031;-52
2021/05/14 02:34:57;;;;;;;4.68;2.95;;;;;;;;;;5074347;28;20377;-51
2021/05/14 02:37:23;;;;;;;6.47;3.42;;;;;;;;;;5074338;28;20028;-52
2021/05/14 02:39:49;;;;;;;9.70;3.67;;;;;;;;;;5073766;28;20472;-52
2021/05/14 02:42:15;;;;;;;4.47;3.38;;;;;;;;;;5074217;28;20370;-51
2021/05/14 02:44:42;;;;;;;9.38;4.20;;;;;;;;;;5074098;28;20021;-52
2021/05/14 02:47:08;;;;;;;7.85;2.97;;;;;;;;;;5074148;28;20477;-52
2021/05/14 02:49:35;;;;;;;9.43;3.75;;;;;;;;;;5073942;28;20060;-52
2021/05/14 02:52:01;;;;;;;8.93;3.33;;;;;;;;;;5073935;28;20362;-52
2021/05/14 02:54:27;;;;;;;7.78;3.28;;;;;;;;;;5073870;28;20028;-52
2021/05/14 02:56:54;;;;;;;6.70;3.28;;;;;;;;;;5073854;28;20035;-52
2021/05/14 02:59:21;;;;;;;14.82;3.63;;;;;;;;;;5073635;28;20029;-51
2021/05/14 03:01:47;;;;;;;8.25;3.22;;;;;;;;;;5073687;28;20393;-50
2021/05/14 03:04:13;;;;;;;9.98;2.92;;;;;;;;;;5088961;28;20032;-51
2021/05/14 03:06:42;;;;;;;6.80;3.20;;;;;;;;;;5073623;28;20032;-52
2021/05/14 03:09:08;;;;;;;7.65;3.15;;;;;;;;;;5073563;28;20557;-51
2021/05/14 03:11:34;;;;;;;8.32;3.40;;;;;;;;;;5073444;28;20053;-52
2021/05/14 03:14:00;;;;;;;6.72;2.75;;;;;;;;;;5073670;28;20033;-51
2021/05/14 03:16:26;;;;;;;7.15;3.10;;;;;;;;;;5073712;28;20033;-51
2021/05/14 03:18:52;;;;;;;5.15;2.60;;;;;;;;;;5073680;28;20017;-51
2021/05/14 03:21:18;;;;;;;9.48;3.67;;;;;;;;;;5073486;28;20123;-52
2021/05/14 03:23:46;;;;;;;6.45;3.30;;;;;;;;;;5074217;28;20073;-52
2021/05/14 03:26:12;;;;;;;5.35;3.13;;;;;;;;;;5073685;28;20031;-52
2021/05/14 03:28:39;;;;;;;4.38;3.10;;;;;;;;;;5073444;28;20020;-52
2021/05/14 03:31:05;;;;;;;6.57;2.72;;;;;;;;;;5088587;28;20033;-52
2021/05/14 03:33:31;;;;;;;8.13;2.40;;;;;;;;;;5073373;28;20056;-52
2021/05/14 03:35:57;;;;;;;6.22;2.60;;;;;;;;;;5073455;28;20048;-51
2021/05/14 03:38:31;;;;;;;7.30;2.67;;;;;;;;;;5073369;28;20029;-52
2021/05/14 03:40:57;;;;;;;7.60;2.75;;;;;;;;;;5073045;28;20044;-52
2021/05/14 03:43:23;;;;;;;4.78;2.50;;;;;;;;;;5073221;28;20031;-52
2021/05/14 03:45:50;;;;;;;6.25;3.00;;;;;;;;;;5073287;28;20063;-53
2021/05/14 03:48:19;;;;;;;8.25;4.38;;;;;;;;;;5073260;28;20024;-52
2021/05/14 03:50:50;;;;;;;10.57;4.90;;;;;;;;;;5073238;28;20112;-52
2021/05/14 03:53:16;;;;;;;7.15;3.10;;;;;;;;;;5074008;28;20066;-52
2021/05/14 03:55:42;;;;;;;6.28;3.75;;;;;;;;;;5077411;28;20357;-52
2021/05/14 03:58:08;;;;;;;8.85;5.22;;;;;;;;;;5077387;28;20052;-52
2021/05/14 04:00:34;;;;;;;7.43;2.75;;;;;;;;;;5077155;28;20035;-52
2021/05/14 04:03:02;;;;;;;8.45;3.08;;;;;;;;;;5092470;28;20033;-52
2021/05/14 04:05:28;;;;;;;7.93;3.72;;;;;;;;;;5077187;28;20028;-51
2021/05/14 04:07:55;;;;;;;12.45;4.63;;;;;;;;;;5077150;28;20021;-52
2021/05/14 04:10:36;;;;;;;6.13;2.78;;;;;;;;;;5076861;28;20024;-51
2021/05/14 04:15:47;;;;;;;7.60;2.90;;;;;;;;;;5077047;28;20067;-52
2021/05/14 04:18:14;;;;;;;10.52;5.28;;;;;;;;;;5077038;28;20488;-53
2021/05/14 04:20:40;;;;;;;7.85;3.75;;;;;;;;;;5076730;28;20043;-53
2021/05/14 04:23:08;;;;;;;6.35;4.13;;;;;;;;;;5077014;28;20415;-54
2021/05/14 04:25:37;;;;;;;10.73;6.30;;;;;;;;;;5076768;28;20477;-53
2021/05/14 04:28:04;;;;;;;5.57;3.28;;;;;;;;;;5077000;28;20056;-52
2021/05/14 04:30:31;;;;;;;9.55;3.85;;;;;;;;;;5076612;28;20035;-52
2021/05/14 04:32:59;;;;;;;8.55;3.50;;;;;;;;;;5076401;28;20029;-52
2021/05/14 04:35:27;;;;;;;21.17;10.80;;;;;;;;;;5076421;28;20043;-53
2021/05/14 04:37:53;;;;;;;24.42;14.93;;;;;;;;;;5076565;28;20012;-52
2021/05/14 04:40:20;;;;;;;21.63;12.13;;;;;;;;;;5076481;28;20037;-52
2021/05/14 04:42:46;;;;;;;24.45;11.55;;;;;;;;;;5076366;28;20044;-52
2021/05/14 04:45:13;;;;;;;9.90;7.07;;;;;;;;;;5076271;28;20036;-53
2021/05/14 04:47:39;;;;;;;18.20;9.63;;;;;;;;;;5076274;28;20436;-53
2021/05/14 04:50:05;;;;;;;16.38;8.25;;;;;;;;;;5076250;28;20025;-53
2021/05/14 04:52:32;;;;;;;9.93;5.80;;;;;;;;;;5076477;28;20396;-53
2021/05/14 04:54:58;;;;;;;8.95;3.30;;;;;;;;;;5076152;28;20044;-53
2021/05/14 04:57:26;;;;;;;9.80;3.95;;;;;;;;;;5076191;28;20017;-53
2021/05/14 04:59:53;;;;;;;10.52;4.65;;;;;;;;;;5087104;28;20060;-53
2021/05/14 05:02:19;;;;;;;20.15;12.00;;;;;;;;;;5094684;28;20031;-54
2021/05/14 05:04:45;;;;;;;15.07;9.60;;;;;;;;;;5094619;28;20387;-52
2021/05/14 05:07:11;;;;;;;33.05;17.60;;;;;;;;;;5095559;28;20512;-52
2021/05/14 05:09:37;;;;;;;14.57;8.98;;;;;;;;;;5096146;28;20106;-53
2021/05/14 05:12:04;;;;;;;30.02;15.75;;;;;;;;;;5095740;28;20528;-52
2021/05/14 05:14:30;;;;;;;29.35;15.20;;;;;;;;;;5096227;28;20040;-53
2021/05/14 05:16:56;;;;;;;10.73;5.72;;;;;;;;;;5095893;28;20020;-51
2021/05/14 05:19:22;;;;;;;29.55;19.67;;;;;;;;;;5095757;28;20028;-52
2021/05/14 05:21:48;;;;;;;21.17;13.00;;;;;;;;;;5096017;28;20024;-52
2021/05/14 05:24:15;;;;;;;12.35;5.85;;;;;;;;;;5094497;28;20031;-53
2021/05/14 05:26:41;;;;;;;11.20;6.07;;;;;;;;;;5095964;28;20507;-51
2021/05/14 05:29:07;;;;;;;7.65;4.15;;;;;;;;;;5095790;28;20039;-47
2021/05/14 05:31:33;;;;;;;12.43;6.43;;;;;;;;;;5094344;28;20373;-52
2021/05/14 05:33:59;;;;;;;11.00;4.97;;;;;;;;;;5095617;28;20085;-52
2021/05/14 05:36:25;;;;;;;8.95;4.38;;;;;;;;;;5095585;28;20024;-52
2021/05/14 05:38:54;;;;;;;10.40;5.07;;;;;;;;;;5095510;28;20472;-52
2021/05/14 05:41:20;;;;;;;9.65;4.40;;;;;;;;;;5095261;28;20044;-52
2021/05/14 05:43:46;;;;;;;8.90;3.78;;;;;;;;;;5095475;28;20103;-52
2021/05/14 05:46:12;;;;;;;10.57;3.75;;;;;;;;;;5095416;28;20051;-49
2021/05/14 05:48:38;;;;;;;6.45;2.92;;;;;;;;;;5095531;28;20024;-48
2021/05/14 05:51:09;;;;;;;7.93;3.20;;;;;;;;;;5095156;28;20373;-48
2021/05/14 05:53:35;;;;;;;8.90;4.00;;;;;;;;;;5095078;28;20468;-46
2021/05/14 05:56:01;;;;;;;6.85;3.05;;;;;;;;;;5093863;28;20036;-46
2021/05/14 05:58:27;;;;;;;7.32;3.88;;;;;;;;;;5095141;28;20028;-50
2021/05/14 06:00:53;;;;;;;7.70;3.53;;;;;;;;;;5095020;28;20476;-49
2021/05/14 06:03:19;;;;;;;9.23;2.50;;;;;;;;;;5095061;28;20028;-50
2021/05/14 06:05:45;;;;;;;12.95;4.35;;;;;;;;;;5094982;28;20072;-50
2021/05/14 06:08:11;;;;;;;6.68;2.60;;;;;;;;;;5094860;28;20020;-49
2021/05/14 06:10:37;;;;;;;7.55;2.70;;;;;;;;;;5094611;28;20113;-51
2021/05/14 06:13:04;;;;;;;5.82;2.50;;;;;;;;;;5095122;28;20036;-49
2021/05/14 06:15:30;;;;;;;11.88;2.88;;;;;;;;;;5094492;28;20031;-50
2021/05/14 06:17:56;;;;;;;10.00;5.47;;;;;;;;;;5094563;28;20042;-51
2021/05/14 06:20:23;;;;;;;29.60;14.75;;;;;;;;;;5094794;28;20085;-52
2021/05/14 06:22:50;;;;;;;33.78;18.10;;;;;;;;;;5094658;28;20024;-52
2021/05/14 06:25:18;;;;;;;25.27;13.43;;;;;;;;;;5094780;28;20494;-51
2021/05/14 06:27:46;;;;;;;18.92;9.30;;;;;;;;;;5094875;28;20024;-51
2021/05/14 06:30:13;;;;;;;16.40;6.95;;;;;;;;;;5094400;28;20579;-51
2021/05/14 06:32:39;;;;;;;6.03;2.83;;;;;;;;;;5094689;28;20111;-52
2021/05/14 06:35:06;;;;;;;17.05;8.63;;;;;;;;;;5094484;28;20024;-51
2021/05/14 06:37:36;;;;;;;7.45;2.60;;;;;;;;;;5094370;28;20027;-51
2021/05/14 06:40:03;;;;;;;11.80;6.00;;;;;;;;;;5094674;28;20111;-51
2021/05/14 06:42:31;;;;;;;15.07;6.50;;;;;;;;;;5094304;28;20024;-51
2021/05/14 06:44:57;;;;;;;14.45;5.28;;;;;;;;;;5094466;28;20054;-49
2021/05/14 06:47:27;;;;;;;46.30;24.25;;;;;;;;;;5094239;28;20023;-50
2021/05/14 06:49:54;;;;;;;35.40;17.27;;;;;;;;;;5094031;28;20017;-50
2021/05/14 06:52:20;;;;;;;38.28;21.92;;;;;;;;;;5094346;28;20248;-49
2021/05/14 06:54:46;;;;;;;13.88;3.75;;;;;;;;;;5094423;28;20364;-49
2021/05/14 06:57:12;;;;;;;7.75;3.65;;;;;;;;;;5094104;28;20115;-50
2021/05/14 06:59:38;;;;;;;9.60;2.92;;;;;;;;;;5093860;28;20070;-50
2021/05/14 07:02:04;;;;;;;12.95;4.22;;;;;;;;;;5093892;28;20461;-51
2021/05/14 07:04:31;;;;;;;35.35;17.02;;;;;;;;;;5093782;28;20442;-50
2021/05/14 07:06:59;;;;;;;26.98;10.55;;;;;;;;;;5093990;28;20024;-48
2021/05/14 07:09:25;;;;;;;23.83;11.27;;;;;;;;;;5093746;28;20028;-50
2021/05/14 07:11:51;;;;;;;18.35;9.38;;;;;;;;;;5093560;28;20040;-48
2021/05/14 07:14:17;;;;;;;20.55;8.95;;;;;;;;;;5093780;28;20085;-51
2021/05/14 07:16:44;;;;;;;9.73;3.58;;;;;;;;;;5093674;28;20051;-51
2021/05/14 07:19:14;;;;;;;18.05;10.75;;;;;;;;;;5093639;28;20081;-51
2021/05/14 07:21:41;;;;;;;8.18;2.50;;;;;;;;;;5093528;28;20036;-51
2021/05/14 07:24:07;;;;;;;21.60;8.93;;;;;;;;;;5093656;28;20476;-50
2021/05/14 07:26:34;;;;;;;28.80;13.70;;;;;;;;;;5093596;28;20483;-51
2021/05/14 07:29:02;;;;;;;44.03;22.55;;;;;;;;;;5092914;28;20052;-50
2021/05/14 07:31:28;;;;;;;11.02;4.95;;;;;;;;;;5093547;28;20024;-52
2021/05/14 07:33:54;;;;;;;15.10;7.72;;;;;;;;;;5093398;28;20031;-50
2021/05/14 07:36:20;;;;;;;73.05;49.22;;;;;;;;;;5093536;28;20032;-47
2021/05/14 07:38:46;;;;;;;43.15;20.25;;;;;;;;;;5093613;28;20020;-51
2021/05/14 07:41:13;;;;;;;20.98;8.85;;;;;;;;;;5093407;28;20476;-49
2021/05/14 07:43:39;;;;;;;59.22;32.63;;;;;;;;;;5093452;28;20039;-48
2021/05/14 07:46:05;;;;;;;10.27;4.70;;;;;;;;;;5093247;28;20028;-47
2021/05/14 07:48:31;;;;;;;63.60;37.33;;;;;;;;;;5093273;28;20054;-46
2021/05/14 07:50:57;;;;;;;28.20;16.83;;;;;;;;;;5093283;28;20035;-49
2021/05/14 07:53:23;;;;;;;13.77;6.72;;;;;;;;;;5093321;28;20016;-51
2021/05/14 07:55:50;;;;;;;63.83;30.23;;;;;;;;;;5093190;28;20093;-50
2021/05/14 07:58:16;;;;;;;92.20;52.60;;;;;;;;;;5091921;28;20460;-46
2021/05/14 08:00:44;;;;;;;27.88;13.02;;;;;;;;;;5093122;28;20036;-46
2021/05/14 08:03:12;;;;;;;4.57;2.25;;;;;;;;;;5093171;28;20020;-50
2021/05/14 08:05:38;;;;;;;9.98;2.80;;;;;;;;;;5093421;28;20035;-51
2021/05/14 08:08:24;;;;;;;10.02;3.42;;;;;;;;;;5093251;28;20024;-51
2021/05/14 08:10:54;;;;;;;11.57;6.22;;;;;;;;;;5092938;28;20048;-52
2021/05/14 08:13:21;;;;;;;8.23;2.28;;;;;;;;;;5091925;28;20449;-51
2021/05/14 08:15:47;;;;;;;18.88;12.30;;;;;;;;;;5091359;28;20032;-53
2021/05/14 08:18:13;;;;;;;41.00;23.58;;;;;;;;;;5091773;28;20357;-51
2021/05/14 08:20:41;;;;;;;32.55;18.90;;;;;;;;;;5091878;28;20074;-53
2021/05/14 08:23:08;;;;;;;17.20;8.73;;;;;;;;;;5091692;28;20020;-50
2021/05/14 08:25:37;;;;;;;43.60;23.55;;;;;;;;;;5091878;28;20693;-49
2021/05/14 08:28:03;;;;;;;36.92;18.52;;;;;;;;;;5091796;28;20016;-48
2021/05/14 08:30:29;;;;;;;122.00;74.63;;;;;;;;;;5091395;28;20381;-48
2021/05/14 08:32:55;;;;;;;33.58;19.77;;;;;;;;;;5091620;28;20017;-48
2021/05/14 08:35:22;;;;;;;66.10;37.97;;;;;;;;;;5091447;28;20498;-48
2021/05/14 08:37:48;;;;;;;45.42;26.63;;;;;;;;;;5091344;28;20027;-49
2021/05/14 08:40:15;;;;;;;57.65;34.58;;;;;;;;;;5093582;28;20046;-50
2021/05/14 08:42:42;;;;;;;24.58;12.60;;;;;;;;;;5095184;28;20020;-48
2021/05/14 08:45:09;;;;;;;80.75;46.05;;;;;;;;;;5093959;28;20054;-48
2021/05/14 08:47:39;;;;;;;10.32;4.20;;;;;;;;;;5095044;28;20018;-49
2021/05/14 08:50:05;;;;;;;12.57;7.78;;;;;;;;;;5095005;28;20484;-50
2021/05/14 08:52:34;;;;;;;40.63;24.60;;;;;;;;;;5092356;28;20012;-49
2021/05/14 08:55:01;;;;;;;88.30;54.42;;;;;;;;;;5095021;28;20440;-50
2021/05/14 08:57:33;;;;;;;7.43;4.93;;;;;;;;;;5094835;28;20043;-50
2021/05/14 09:00:00;;;;;;;19.52;10.55;;;;;;;;;;5094737;28;20020;-49
2021/05/14 09:02:26;;;;;;;82.28;45.00;;;;;;;;;;5094700;28;20016;-49
2021/05/14 09:04:52;;;;;;;60.63;37.85;;;;;;;;;;5092195;28;20077;-48
2021/05/14 09:07:21;;;;;;;14.13;7.05;;;;;;;;;;5094689;28;20016;-51
2021/05/14 09:10:06;;;;;;;26.92;14.30;;;;;;;;;;5094343;28;20012;-49
2021/05/14 09:12:35;;;;;;;50.67;25.35;;;;;;;;;;5094509;28;20051;-50
2021/05/14 09:15:20;;;;;;;82.70;49.22;;;;;;;;;;5094948;28;20439;-50
2021/05/14 09:18:04;;;;;;;24.52;11.57;;;;;;;;;;5093758;28;20035;-51
2021/05/14 09:20:34;;;;;;;17.35;9.88;;;;;;;;;;5094059;28;20028;-49
2021/05/14 09:23:01;;;;;;;35.78;20.92;;;;;;;;;;5094688;28;20069;-49
2021/05/14 09:25:28;;;;;;;7.07;3.22;;;;;;;;;;5091811;28;20020;-50
2021/05/14 09:27:54;;;;;;;41.50;24.15;;;;;;;;;;5094471;28;20027;-49
2021/05/14 09:30:20;;;;;;;59.75;32.15;;;;;;;;;;5094362;28;20028;-51
2021/05/14 09:32:46;;;;;;;25.20;15.82;;;;;;;;;;5091635;28;20089;-49
2021/05/14 09:35:12;;;;;;;13.38;7.68;;;;;;;;;;5094307;28;20031;-50
2021/05/14 09:37:48;;;;;;;15.25;8.98;;;;;;;;;;5094180;28;20024;-49
2021/05/14 09:40:21;;;;;;;6.43;2.45;;;;;;;;;;5092308;28;20028;-50
2021/05/14 09:42:51;;;;;;;19.90;13.23;;;;;;;;;;5091706;28;20388;-48
2021/05/14 09:45:22;;;;;;;31.83;17.60;;;;;;;;;;5094218;28;20159;-53
2021/05/14 09:48:01;;;;;;;40.70;25.02;;;;;;;;;;5091485;28;20387;-52
2021/05/14 09:50:29;;;;;;;14.18;8.32;;;;;;;;;;5089454;28;20399;-51
2021/05/14 09:53:27;;;;;;;33.70;22.27;;;;;;;;;;5093781;28;20015;-53
2021/05/14 09:56:14;;;;;;;22.15;13.82;;;;;;;;;;5011642;28;20030;-50
2021/05/14 09:58:40;;;;;;;19.25;11.75;;;;;;;;;;5011163;28;20099;-48
2021/05/14 10:01:12;;;;;;;45.40;26.77;;;;;;;;;;5012832;28;20034;-48
2021/05/14 10:03:38;;;;;;;37.78;24.08;;;;;;;;;;5013107;28;20110;-49
2021/05/14 10:06:05;;;;;;;34.80;22.17;;;;;;;;;;5011849;28;20042;-49
2021/05/14 10:08:33;;;;;;;26.38;18.38;;;;;;;;;;5011510;28;20061;-49
2021/05/14 10:11:02;;;;;;;9.02;4.85;;;;;;;;;;5011060;28;20046;-53
2021/05/14 10:13:31;;;;;;;108.72;72.00;;;;;;;;;;5012682;28;20363;-47
2021/05/14 10:15:57;;;;;;;57.55;35.75;;;;;;;;;;5011460;28;20510;-48
2021/05/14 10:18:24;;;;;;;54.45;35.63;;;;;;;;;;5011209;28;20076;-47
2021/05/14 10:20:51;;;;;;;33.10;18.77;;;;;;;;;;5011367;28;20026;-48
2021/05/14 10:23:17;;;;;;;100.07;56.72;;;;;;;;;;5012153;28;20025;-48
2021/05/14 10:25:49;;;;;;;58.60;35.33;;;;;;;;;;5012101;28;20030;-50
2021/05/14 10:28:24;;;;;;;161.98;110.22;;;;;;;;;;5012017;28;20050;-48
2021/05/14 10:31:09;;;;;;;114.30;83.05;;;;;;;;;;5029798;28;20506;-49
2021/05/14 10:34:01;;;;;;;110.35;70.43;;;;;;;;;;5091725;28;20099;-48
2021/05/14 10:36:31;;;;;;;66.70;41.72;;;;;;;;;;5086842;28;20043;-50
2021/05/14 10:39:06;;;;;;;20.80;12.37;;;;;;;;;;5093002;28;20031;-49
2021/05/14 10:41:33;;;;;;;37.05;19.65;;;;;;;;;;5092675;28;20039;-50
2021/05/14 10:44:04;;;;;;;31.50;16.75;;;;;;;;;;5092821;28;20376;-50
2021/05/14 10:46:31;;;;;;;15.73;10.30;;;;;;;;;;5093626;28;20078;-49
2021/05/14 10:49:07;;;;;;;17.00;7.82;;;;;;;;;;5094250;28;20024;-51
2021/05/14 10:51:51;;;;;;;14.57;7.00;;;;;;;;;;5094244;28;20077;-50
2021/05/14 10:54:36;;;;;;;15.65;8.10;;;;;;;;;;5094099;28;20030;-52
2021/05/14 10:57:02;;;;;;;28.70;17.35;;;;;;;;;;5093622;28;20020;-50
2021/05/14 10:59:33;;;;;;;256.45;173.27;;;;;;;;;;5099489;28;20024;-50
2021/05/14 11:01:59;;;;;;;;;;;;;;;;;;5114421;28;20036;-47
2021/05/14 11:04:25;;;;;;;70.07;41.47;;;;;;;;;;5114211;28;19956;-47
2021/05/14 11:06:54;;;;;;;81.07;47.63;;;;;;;;;;5114382;28;20031;-48
2021/05/14 11:09:24;;;;;;;90.35;61.42;;;;;;;;;;5114083;28;20028;-49
2021/05/14 11:11:58;;;;;;;33.72;24.00;;;;;;;;;;5113883;28;20491;-48
2021/05/14 11:14:24;;;;;;;98.22;65.05;;;;;;;;;;5113914;28;20023;-46
2021/05/14 11:16:52;;;;;;;67.75;44.25;;;;;;;;;;5114132;27;20023;-46
2021/05/14 11:19:26;;;;;;;71.20;47.33;;;;;;;;;;5114054;28;20065;-46
2021/05/14 11:22:21;;;;;;;6.50;2.97;;;;;;;;;;5113957;28;20027;-47
2021/05/14 11:24:59;;;;;;;34.80;22.67;;;;;;;;;;5051075;28;20140;-47
2021/05/14 11:27:28;;;;;;;21.33;13.50;;;;;;;;;;5051026;28;20504;-46
2021/05/14 11:29:55;;;;;;;6.50;2.92;;;;;;;;;;5050556;28;20040;-47
2021/05/14 11:32:22;;;;;;;6.53;3.58;;;;;;;;;;5051089;28;20025;-46
2021/05/14 11:35:07;;;;;;;13.52;6.72;;;;;;;;;;5051089;28;20047;-46
2021/05/14 11:37:38;;;;;;;6.68;2.42;;;;;;;;;;5050982;28;20110;-48
2021/05/14 11:40:04;;;;;;;;;;;;;;;;;;5051438;28;20021;-47
2021/05/14 11:42:30;;;;;;;7.00;2.65;;;;;;;;;;5050815;28;20011;-47
2021/05/14 11:44:57;;;;;;;5.20;1.90;;;;;;;;;;5050928;28;20552;-46
2021/05/14 11:47:23;;;;;;;11.52;6.35;;;;;;;;;;5050913;28;20071;-47
2021/05/14 11:49:50;;;;;;;5.05;1.67;;;;;;;;;;5050895;28;20067;-47
2021/05/14 11:52:16;;;;;;;2.95;1.30;;;;;;;;;;5051199;28;20466;-47
2021/05/14 11:54:42;;;;;;;4.45;2.88;;;;;;;;;;5050914;28;20132;-47
2021/05/14 11:57:08;;;;;;;11.13;3.08;;;;;;;;;;5050848;28;20037;-47
2021/05/14 11:59:36;;;;;;;6.82;2.13;;;;;;;;;;5050366;28;20079;-47
2021/05/14 12:02:02;;;;;;;1.88;0.77;;;;;;;;;;5103587;28;20087;-48
2021/05/14 12:04:28;;;;;;;2.72;0.90;;;;;;;;;;5113559;28;20026;-47
2021/05/14 12:06:54;;;;;;;1.55;0.70;;;;;;;;;;5113306;28;20471;-48
2021/05/14 12:09:20;;;;;;;4.25;1.02;;;;;;;;;;5113524;28;20016;-47
2021/05/14 12:11:47;;;;;;;4.05;1.40;;;;;;;;;;5113070;28;20054;-47
2021/05/14 12:14:23;;;;;;;7.10;2.90;;;;;;;;;;5114181;28;20020;-47
2021/05/14 12:16:49;;;;;;;8.25;1.83;;;;;;;;;;5117415;28;20020;-48
2021/05/14 12:19:15;;;;;;;11.05;1.73;;;;;;;;;;5117447;28;20024;-47
2021/05/14 12:21:43;;;;;;;5.15;1.63;;;;;;;;;;5115904;28;20043;-47
2021/05/14 12:24:14;;;;;;;8.52;1.60;;;;;;;;;;5117373;28;20031;-48
2021/05/14 12:26:43;;;;;;;10.63;2.42;;;;;;;;;;5117363;28;20387;-48
2021/05/14 12:29:21;;;;;;;8.27;4.00;;;;;;;;;;5116787;28;20032;-48
2021/05/14 12:31:54;;;;;;;5.43;2.97;;;;;;;;;;5117024;27;20111;-48
2021/05/14 12:34:23;;;;;;;10.48;2.47;;;;;;;;;;5117065;28;20012;-48
2021/05/14 12:36:52;;;;;;;9.00;2.38;;;;;;;;;;5117109;28;20102;-48
2021/05/14 12:39:19;;;;;;;1.63;0.75;;;;;;;;;;5117127;28;20034;-48
2021/05/14 12:42:00;;;;;;;4.15;1.40;;;;;;;;;;5116861;28;20042;-49
2021/05/14 12:44:37;;;;;;;7.18;2.92;;;;;;;;;;5116940;28;20073;-48
2021/05/14 12:47:16;;;;;;;9.55;5.70;;;;;;;;;;5116808;28;20472;-48
2021/05/14 12:49:46;;;;;;;51.10;35.25;;;;;;;;;;5116924;27;20015;-49
2021/05/14 12:52:14;;;;;;;88.75;64.05;;;;;;;;;;5116896;27;20483;-47
2021/05/14 12:54:50;;;;;;;48.78;34.83;;;;;;;;;;5115363;28;20120;-48
2021/05/14 12:57:30;;;;;;;17.02;11.20;;;;;;;;;;5116594;28;20027;-48
2021/05/14 12:59:56;;;;;;;14.13;6.72;;;;;;;;;;5114965;28;20491;-51
2021/05/14 13:02:27;;;;;;;7.30;3.63;;;;;;;;;;5116392;28;20100;-49
2021/05/14 13:04:57;;;;;;;34.80;20.23;;;;;;;;;;5116594;28;20088;-48
2021/05/14 13:07:23;;;;;;;96.40;56.10;;;;;;;;;;5116548;28;20062;-48
2021/05/14 13:09:50;;;;;;;14.40;8.10;;;;;;;;;;5116282;28;20103;-50
2021/05/14 13:12:16;;;;;;;14.30;7.03;;;;;;;;;;5116143;28;20109;-48
2021/05/14 13:14:43;;;;;;;12.00;7.22;;;;;;;;;;5116329;28;20039;-50
2021/05/14 13:17:09;;;;;;;3.72;1.35;;;;;;;;;;5116374;28;20098;-52
2021/05/14 13:19:35;;;;;;;1.70;0.80;;;;;;;;;;5115964;28;20442;-48
2021/05/14 13:22:01;;;;;;;21.67;7.90;;;;;;;;;;5116264;28;20031;-49
2021/05/14 13:24:27;;;;;;;66.55;36.13;;;;;;;;;;5116115;28;20528;-52
2021/05/14 13:26:53;;;;;;;41.92;18.67;;;;;;;;;;5097787;28;20114;-53
2021/05/14 13:29:19;;;;;;;26.05;12.27;;;;;;;;;;5093604;28;20066;-47
2021/05/14 13:31:45;;;;;;;283.30;163.65;;;;;;;;;;5093793;28;20035;-51
2021/05/14 13:34:12;;;;;;;157.32;82.60;;;;;;;;;;5100951;28;20027;-47
2021/05/14 13:36:40;;;;;;;18.67;8.05;;;;;;;;;;5115935;28;20079;-48
2021/05/14 13:39:06;;;;;;;60.28;18.50;;;;;;;;;;5116145;28;20024;-49
2021/05/14 13:41:33;;;;;;;11.20;3.67;;;;;;;;;;5115741;28;20031;-48
2021/05/14 13:44:01;;;;;;;81.78;28.75;;;;;;;;;;5116187;28;20070;-48
2021/05/14 13:46:27;;;;;;;11.90;3.63;;;;;;;;;;5115924;28;20084;-49
2021/05/14 13:48:53;;;;;;;16.30;6.72;;;;;;;;;;5115464;28;20019;-49
2021/05/14 13:51:20;;;;;;;8.07;2.08;;;;;;;;;;5116032;28;20028;-50
2021/05/14 13:53:47;;;;;;;2.83;1.10;;;;;;;;;;5116041;28;20027;-48
2021/05/14 13:56:13;;;;;;;4.35;0.70;;;;;;;;;;5115949;28;20023;-49
2021/05/14 13:58:39;;;;;;;2.55;1.17;;;;;;;;;;5115994;28;20084;-49
2021/05/14 14:01:05;;;;;;;5.55;2.13;;;;;;;;;;5115596;28;20020;-49
2021/05/14 14:03:33;;;;;;;6.18;2.15;;;;;;;;;;5115680;28;20051;-50
2021/05/14 14:05:59;;;;;;;13.73;4.18;;;;;;;;;;5115614;28;20489;-50
2021/05/14 14:08:25;;;;;;;10.02;4.15;;;;;;;;;;5115307;28;20096;-49
2021/05/14 14:10:55;;;;;;;9.48;5.80;;;;;;;;;;5115272;28;20042;-49
2021/05/14 14:13:21;;;;;;;5.03;2.75;;;;;;;;;;5115649;28;20047;-49
2021/05/14 14:15:47;;;;;;;6.85;3.15;;;;;;;;;;5115348;28;20034;-50
2021/05/14 14:18:13;;;;;;;3.10;2.00;;;;;;;;;;5115306;28;20031;-49
2021/05/14 14:20:39;;;;;;;3.28;1.40;;;;;;;;;;5115025;28;20051;-49
2021/05/14 14:23:05;;;;;;;5.00;1.70;;;;;;;;;;5113728;28;20043;-49
2021/05/14 14:25:32;;;;;;;8.05;1.65;;;;;;;;;;5115014;28;20302;-48
2021/05/14 14:27:58;;;;;;;1.60;1.50;;;;;;;;;;5115123;28;20020;-49
2021/05/14 14:30:24;;;;;;;7.88;1.90;;;;;;;;;;5115164;28;20024;-49
2021/05/14 14:32:50;;;;;;;4.88;2.47;;;;;;;;;;5115002;28;20036;-51
2021/05/14 14:35:18;;;;;;;7.03;2.05;;;;;;;;;;5115182;28;20377;-48
2021/05/14 14:37:44;;;;;;;3.53;2.05;;;;;;;;;;5114409;28;20103;-50